createdAt,value
2022-12-01T00:01:12.748Z,19.65
2022-12-01T00:03:39.860Z,20.75
2022-12-01T00:06:11.814Z,21.65
2022-12-01T00:08:38.713Z,20.60
2022-12-01T00:11:13.088Z,21.42
2022-12-01T00:13:39.855Z,21.20
2022-12-01T00:16:11.817Z,21.75
2022-12-01T00:18:38.589Z,22.90
2022-12-01T00:21:06.124Z,22.08
2022-12-01T00:23:32.882Z,21.85
2022-12-01T00:26:06.263Z,20.35
2022-12-01T00:28:32.972Z,21.48
2022-12-01T00:31:00.249Z,20.88
2022-12-01T00:33:27.096Z,20.13
2022-12-01T00:36:00.295Z,19.98
2022-12-01T00:38:27.381Z,21.47
2022-12-01T00:40:54.178Z,21.80
2022-12-01T00:43:21.020Z,21.83
2022-12-01T00:45:47.993Z,21.75
2022-12-01T00:48:14.848Z,20.60
2022-12-01T00:50:41.595Z,22.95
2022-12-01T00:53:08.610Z,20.20
2022-12-01T00:55:35.382Z,20.17
2022-12-01T00:58:02.201Z,22.88
2022-12-01T01:00:28.978Z,21.15
2022-12-01T01:02:55.740Z,20.70
2022-12-01T01:05:23.424Z,21.17
2022-12-01T01:07:50.253Z,21.80
2022-12-01T01:10:17.300Z,20.98
2022-12-01T01:12:44.060Z,21.70
2022-12-01T01:15:10.984Z,19.83
2022-12-01T01:17:37.673Z,19.83
2022-12-01T01:20:06.985Z,21.13
2022-12-01T01:22:35.181Z,21.05
2022-12-01T01:25:01.890Z,20.65
2022-12-01T01:27:28.592Z,20.30
2022-12-01T01:29:55.292Z,20.92
2022-12-01T01:32:22.038Z,21.15
2022-12-01T01:34:48.789Z,21.50
2022-12-01T01:37:15.483Z,20.45
2022-12-01T01:39:42.202Z,21.45
2022-12-01T01:42:13.146Z,20.75
2022-12-01T01:44:50.162Z,21.23
2022-12-01T01:47:34.929Z,20.13
2022-12-01T01:50:06.517Z,18.67
2022-12-01T01:52:34.519Z,21.13
2022-12-01T01:55:01.261Z,21.23
2022-12-01T01:57:30.028Z,20.38
2022-12-01T02:00:01.754Z,19.52
2022-12-01T02:02:28.489Z,21.08
2022-12-01T02:05:01.205Z,18.88
2022-12-01T02:07:28.087Z,21.20
2022-12-01T02:09:54.920Z,20.50
2022-12-01T02:12:34.260Z,17.70
2022-12-01T02:15:23.533Z,17.42
2022-12-01T02:18:11.994Z,18.02
2022-12-01T02:21:08.216Z,16.42
2022-12-01T02:24:13.219Z,15.73
2022-12-01T02:29:54.116Z,15.00
2022-12-01T02:32:23.689Z,14.95
2022-12-01T02:35:23.587Z,13.98
2022-12-01T02:38:04.825Z,16.15
2022-12-01T02:40:40.370Z,17.35
2022-12-01T02:43:27.704Z,17.60
2022-12-01T02:45:58.792Z,17.38
2022-12-01T02:48:30.651Z,18.98
2022-12-01T02:50:59.791Z,15.95
2022-12-01T02:53:26.658Z,15.95
2022-12-01T02:55:54.609Z,16.92
2022-12-01T02:58:21.510Z,17.17
2022-12-01T03:01:06.991Z,17.17
2022-12-01T03:04:09.828Z,18.00
2022-12-01T03:06:41.912Z,17.13
2022-12-01T03:09:33.595Z,17.77
2022-12-01T03:12:21.271Z,17.65
2022-12-01T03:15:18.570Z,17.23
2022-12-01T03:17:52.434Z,18.13
2022-12-01T03:20:56.009Z,16.17
2022-12-01T03:23:23.902Z,18.70
2022-12-01T03:25:52.030Z,16.65
2022-12-01T03:28:22.274Z,16.02
2022-12-01T03:30:51.123Z,17.52
2022-12-01T03:33:25.707Z,17.98
2022-12-01T03:35:56.091Z,16.92
2022-12-01T03:38:25.462Z,17.83
2022-12-01T03:40:57.112Z,17.05
2022-12-01T03:43:29.986Z,15.65
2022-12-01T03:46:27.489Z,18.85
2022-12-01T03:48:54.377Z,16.25
2022-12-01T03:51:34.396Z,14.60
2022-12-01T03:54:36.414Z,16.73
2022-12-01T03:57:05.076Z,15.30
2022-12-01T03:59:31.859Z,18.52
2022-12-01T04:01:58.709Z,15.75
2022-12-01T04:04:25.482Z,16.73
2022-12-01T04:06:52.449Z,16.73
2022-12-01T04:09:19.215Z,16.42
2022-12-01T04:12:04.793Z,16.00
2022-12-01T04:14:31.531Z,15.90
2022-12-01T04:16:58.259Z,15.52
2022-12-01T04:19:25.014Z,15.52
2022-12-01T04:21:51.758Z,16.08
2022-12-01T04:24:18.592Z,16.42
2022-12-01T04:26:46.164Z,17.20
2022-12-01T04:29:14.423Z,16.83
2022-12-01T04:31:41.251Z,17.50
2022-12-01T04:34:08.099Z,16.70
2022-12-01T04:36:35.214Z,15.27
2022-12-01T04:39:02.171Z,14.10
2022-12-01T04:41:28.983Z,14.07
2022-12-01T04:43:55.947Z,15.65
2022-12-01T04:46:23.272Z,16.10
2022-12-01T04:48:50.064Z,13.82
2022-12-01T04:51:16.835Z,16.45
2022-12-01T04:53:43.556Z,14.50
2022-12-01T04:56:10.391Z,14.05
2022-12-01T04:58:40.489Z,14.43
2022-12-01T05:01:12.205Z,14.65
2022-12-01T05:03:42.918Z,13.00
2022-12-01T05:06:11.333Z,14.43
2022-12-01T05:08:38.081Z,13.70
2022-12-01T05:11:07.556Z,13.77
2022-12-01T05:13:36.444Z,15.23
2022-12-01T05:16:16.474Z,15.10
2022-12-01T05:18:43.440Z,12.38
2022-12-01T05:21:10.737Z,13.07
2022-12-01T05:23:37.978Z,12.68
2022-12-01T05:26:08.341Z,11.77
2022-12-01T05:28:35.405Z,11.95
2022-12-01T05:31:02.306Z,11.20
2022-12-01T05:33:29.172Z,12.30
2022-12-01T05:35:56.011Z,10.30
2022-12-01T05:38:22.757Z,11.13
2022-12-01T05:40:53.461Z,12.00
2022-12-01T05:43:26.884Z,10.65
2022-12-01T05:45:55.731Z,11.82
2022-12-01T05:48:22.560Z,10.18
2022-12-01T05:50:49.238Z,10.43
2022-12-01T05:53:16.292Z,10.30
2022-12-01T05:55:43.036Z,10.88
2022-12-01T05:58:09.887Z,11.18
2022-12-01T06:00:40.858Z,10.95
2022-12-01T06:03:11.929Z,10.23
2022-12-01T06:05:38.733Z,10.98
2022-12-01T06:08:05.599Z,10.15
2022-12-01T06:10:32.376Z,9.88
2022-12-01T06:12:59.172Z,9.82
2022-12-01T06:15:26.261Z,11.88
2022-12-01T06:17:53.006Z,9.73
2022-12-01T06:20:19.998Z,10.43
2022-12-01T06:22:46.698Z,11.15
2022-12-01T06:25:13.558Z,10.88
2022-12-01T06:27:40.349Z,10.85
2022-12-01T06:30:07.728Z,9.25
2022-12-01T06:32:34.541Z,11.77
2022-12-01T06:35:01.594Z,10.07
2022-12-01T06:37:28.447Z,12.20
2022-12-01T06:39:55.152Z,10.65
2022-12-01T06:42:21.941Z,10.20
2022-12-01T06:44:48.786Z,10.20
2022-12-01T06:47:16.029Z,9.70
2022-12-01T06:49:42.963Z,9.68
2022-12-01T06:52:10.071Z,9.45
2022-12-01T06:54:37.652Z,9.48
2022-12-01T06:57:04.601Z,10.52
2022-12-01T06:59:31.752Z,10.35
2022-12-01T07:01:59.108Z,11.90
2022-12-01T07:04:25.912Z,10.77
2022-12-01T07:06:52.623Z,9.88
2022-12-01T07:09:19.369Z,10.95
2022-12-01T07:11:46.099Z,10.35
2022-12-01T07:14:23.285Z,10.02
2022-12-01T07:16:50.205Z,10.32
2022-12-01T07:19:16.984Z,10.48
2022-12-01T07:21:43.732Z,11.15
2022-12-01T07:24:14.078Z,11.32
2022-12-01T07:26:41.381Z,11.63
2022-12-01T07:29:11.331Z,10.65
2022-12-01T07:31:38.488Z,11.45
2022-12-01T07:34:05.441Z,12.10
2022-12-01T07:36:32.166Z,12.20
2022-12-01T07:38:59.052Z,11.90
2022-12-01T07:41:25.915Z,13.13
2022-12-01T07:43:52.705Z,12.43
2022-12-01T07:46:23.732Z,12.27
2022-12-01T07:48:51.717Z,11.43
2022-12-01T07:51:18.755Z,12.10
2022-12-01T07:53:45.942Z,11.18
2022-12-01T07:56:12.841Z,11.45
2022-12-01T07:58:39.748Z,11.48
2022-12-01T08:01:11.909Z,11.88
2022-12-01T08:03:39.109Z,11.52
2022-12-01T08:06:06.418Z,12.57
2022-12-01T08:08:35.582Z,12.20
2022-12-01T08:11:04.253Z,10.30
2022-12-01T08:13:30.984Z,10.45
2022-12-01T08:15:57.760Z,9.98
2022-12-01T08:18:24.576Z,12.23
2022-12-01T08:20:51.449Z,11.13
2022-12-01T08:23:18.379Z,12.90
2022-12-01T08:25:45.186Z,11.10
2022-12-01T08:28:11.980Z,10.50
2022-12-01T08:30:38.824Z,12.32
2022-12-01T08:33:05.971Z,11.60
2022-12-01T08:35:35.755Z,9.93
2022-12-01T08:38:02.618Z,12.25
2022-12-01T08:40:29.507Z,14.07
2022-12-01T08:42:56.473Z,13.35
2022-12-01T08:45:23.310Z,13.27
2022-12-01T08:47:50.182Z,11.13
2022-12-01T08:50:17.232Z,10.95
2022-12-01T08:52:44.060Z,13.60
2022-12-01T08:55:11.290Z,12.32
2022-12-01T08:57:38.077Z,11.73
2022-12-01T09:00:05.643Z,11.50
2022-12-01T09:02:32.513Z,12.15
2022-12-01T09:04:59.321Z,12.00
2022-12-01T09:07:26.800Z,11.73
2022-12-01T09:09:53.878Z,11.60
2022-12-01T09:12:20.818Z,12.25
2022-12-01T09:14:49.624Z,12.27
2022-12-01T09:17:16.955Z,11.52
2022-12-01T09:19:43.916Z,12.52
2022-12-01T09:22:11.220Z,10.73
2022-12-01T09:24:38.233Z,11.32
2022-12-01T09:27:05.072Z,11.30
2022-12-01T09:29:32.050Z,9.02
2022-12-01T09:31:59.305Z,10.50
2022-12-01T09:34:26.209Z,11.05
2022-12-01T09:36:55.605Z,12.45
2022-12-01T09:39:22.491Z,13.65
2022-12-01T09:42:12.860Z,12.57
2022-12-01T09:44:52.886Z,12.07
2022-12-01T09:47:22.553Z,12.23
2022-12-01T09:50:14.993Z,11.45
2022-12-01T09:52:44.811Z,12.02
2022-12-01T09:55:16.180Z,10.98
2022-12-01T09:57:43.355Z,11.02
2022-12-01T10:00:15.859Z,10.60
2022-12-01T10:03:21.387Z,11.88
2022-12-01T10:06:32.095Z,11.30
2022-12-01T10:09:08.122Z,10.57
2022-12-01T10:11:36.332Z,10.77
2022-12-01T10:14:03.969Z,12.57
2022-12-01T10:16:35.515Z,10.32
2022-12-01T10:19:06.026Z,11.75
2022-12-01T10:21:53.669Z,10.80
2022-12-01T10:24:32.433Z,11.07
2022-12-01T10:27:27.468Z,12.90
2022-12-01T10:30:12.684Z,11.68
2022-12-01T10:32:58.245Z,12.23
2022-12-01T10:35:27.263Z,11.10
2022-12-01T10:37:59.144Z,12.98
2022-12-01T10:40:27.019Z,11.82
2022-12-01T10:42:53.965Z,12.10
2022-12-01T10:45:34.977Z,11.93
2022-12-01T10:48:16.949Z,10.98
2022-12-01T10:50:46.299Z,11.25
2022-12-01T10:53:26.976Z,10.70
2022-12-01T10:56:10.275Z,10.45
2022-12-01T10:58:55.539Z,10.32
2022-12-01T11:01:24.328Z,9.77
2022-12-01T11:03:59.791Z,10.50
2022-12-01T11:06:28.441Z,10.00
2022-12-01T11:09:04.166Z,9.55
2022-12-01T11:11:36.234Z,8.75
2022-12-01T11:14:07.622Z,10.50
2022-12-01T11:16:44.194Z,9.32
2022-12-01T11:19:33.208Z,10.82
2022-12-01T11:22:18.757Z,11.23
2022-12-01T11:25:03.511Z,10.88
2022-12-01T11:27:36.948Z,10.93
2022-12-01T11:30:15.127Z,9.73
2022-12-01T11:32:41.872Z,9.85
2022-12-01T11:35:19.706Z,10.00
2022-12-01T11:40:57.218Z,10.27
2022-12-01T11:43:33.424Z,9.52
2022-12-01T11:46:04.205Z,10.88
2022-12-01T11:48:32.390Z,10.75
2022-12-01T11:51:15.478Z,9.63
2022-12-01T11:53:42.922Z,9.30
2022-12-01T11:56:43.041Z,7.97
2022-12-01T11:59:26.977Z,8.13
2022-12-01T12:02:15.292Z,7.40
2022-12-01T12:05:06.949Z,6.78
2022-12-01T12:07:37.799Z,7.43
2022-12-01T12:10:27.669Z,6.65
2022-12-01T12:13:13.317Z,6.95
2022-12-01T12:16:05.585Z,7.28
2022-12-01T12:18:38.090Z,6.82
2022-12-01T12:21:34.548Z,6.78
2022-12-01T12:24:07.243Z,6.82
2022-12-01T12:27:08.939Z,7.53
2022-12-01T12:29:50.988Z,6.63
2022-12-01T12:32:26.857Z,6.45
2022-12-01T12:35:18.556Z,6.55
2022-12-01T12:37:54.887Z,6.85
2022-12-01T12:40:58.034Z,5.45
2022-12-01T12:43:50.172Z,6.65
2022-12-01T12:46:25.833Z,6.55
2022-12-01T12:49:21.123Z,5.95
2022-12-01T12:51:40.823Z,5.35
2022-12-01T12:54:21.985Z,6.32
2022-12-01T12:56:53.352Z,5.38
2022-12-01T12:59:21.829Z,6.13
2022-12-01T13:02:02.668Z,6.38
2022-12-01T13:04:46.076Z,6.20
2022-12-01T13:07:15.860Z,5.18
2022-12-01T13:09:48.800Z,4.35
2022-12-01T13:12:33.890Z,5.33
2022-12-01T13:15:17.494Z,5.60
2022-12-01T13:18:05.666Z,4.88
2022-12-01T13:20:32.448Z,4.20
2022-12-01T13:22:59.780Z,4.70
2022-12-01T13:25:38.666Z,5.10
2022-12-01T13:28:07.796Z,4.82
2022-12-01T13:30:34.590Z,5.03
2022-12-01T13:33:04.923Z,5.50
2022-12-01T13:35:36.690Z,4.30
2022-12-01T13:38:20.079Z,3.60
2022-12-01T13:40:46.854Z,4.23
2022-12-01T13:43:22.743Z,4.20
2022-12-01T13:45:49.672Z,4.80
2022-12-01T13:48:50.195Z,4.03
2022-12-01T13:51:16.910Z,3.30
2022-12-01T13:54:06.328Z,3.80
2022-12-01T13:56:39.333Z,2.90
2022-12-01T13:59:46.417Z,3.20
2022-12-01T14:02:21.138Z,3.85
2022-12-01T14:04:48.327Z,3.42
2022-12-01T14:07:26.270Z,3.65
2022-12-01T14:09:56.088Z,3.90
2022-12-01T14:12:29.178Z,4.18
2022-12-01T14:15:06.033Z,4.00
2022-12-01T14:17:37.668Z,4.15
2022-12-01T14:20:16.489Z,4.22
2022-12-01T14:22:45.081Z,4.93
2022-12-01T14:25:21.150Z,4.70
2022-12-01T14:27:53.723Z,5.45
2022-12-01T14:30:39.551Z,5.75
2022-12-01T14:33:47.493Z,4.63
2022-12-01T14:36:26.020Z,5.03
2022-12-01T14:38:58.389Z,5.15
2022-12-01T14:41:25.849Z,4.60
2022-12-01T14:44:03.662Z,5.88
2022-12-01T14:46:39.916Z,4.63
2022-12-01T14:49:09.815Z,5.22
2022-12-01T14:51:36.562Z,5.70
2022-12-01T14:54:08.061Z,6.18
2022-12-01T14:56:34.845Z,5.13
2022-12-01T14:59:03.644Z,5.78
2022-12-01T15:01:32.744Z,6.03
2022-12-01T15:04:00.396Z,5.30
2022-12-01T15:06:28.196Z,5.53
2022-12-01T15:12:01.240Z,6.47
2022-12-01T15:14:27.944Z,6.57
2022-12-01T15:16:54.870Z,5.43
2022-12-01T15:19:33.776Z,5.07
2022-12-01T15:22:13.053Z,6.70
2022-12-01T15:24:39.853Z,6.70
2022-12-01T15:27:24.595Z,5.93
2022-12-01T15:29:51.824Z,5.28
2022-12-01T15:32:18.916Z,6.57
2022-12-01T15:34:47.095Z,5.75
2022-12-01T15:37:19.019Z,6.53
2022-12-01T15:43:14.385Z,6.38
2022-12-01T15:45:51.836Z,6.45
2022-12-01T15:48:35.225Z,6.97
2022-12-01T15:51:28.056Z,6.35
2022-12-01T15:54:01.130Z,6.93
2022-12-01T15:56:33.320Z,6.68
2022-12-01T15:59:13.033Z,6.35
2022-12-01T16:01:43.183Z,6.50
2022-12-01T16:04:20.868Z,7.78
2022-12-01T16:07:04.818Z,6.78
2022-12-01T16:09:37.037Z,7.50
2022-12-01T16:12:04.727Z,7.00
2022-12-01T16:14:32.333Z,7.43
2022-12-01T16:16:59.989Z,6.63
2022-12-01T16:19:30.910Z,7.93
2022-12-01T16:22:11.091Z,7.97
2022-12-01T16:24:53.765Z,8.10
2022-12-01T16:27:30.875Z,7.28
2022-12-01T16:30:02.733Z,7.22
2022-12-01T16:32:34.016Z,8.02
2022-12-01T16:35:01.104Z,8.18
2022-12-01T16:37:28.045Z,9.57
2022-12-01T16:39:54.732Z,7.88
2022-12-01T16:42:21.629Z,8.60
2022-12-01T16:44:49.620Z,7.75
2022-12-01T16:47:25.853Z,8.82
2022-12-01T16:49:52.893Z,8.15
2022-12-01T16:52:43.657Z,9.40
2022-12-01T16:55:24.566Z,10.05
2022-12-01T16:57:51.588Z,9.10
2022-12-01T17:00:18.633Z,10.27
2022-12-01T17:02:45.470Z,11.32
2022-12-01T17:05:12.394Z,11.10
2022-12-01T17:07:39.220Z,10.73
2022-12-01T17:10:06.554Z,11.77
2022-12-01T17:12:33.291Z,12.27
2022-12-01T17:14:59.987Z,12.85
2022-12-01T17:17:27.779Z,14.70
2022-12-01T17:19:54.587Z,15.10
2022-12-01T17:22:21.820Z,15.20
2022-12-01T17:24:49.040Z,16.13
2022-12-01T17:27:16.333Z,14.50
2022-12-01T17:29:46.288Z,14.88
2022-12-01T17:32:13.897Z,15.80
2022-12-01T17:34:40.850Z,15.43
2022-12-01T17:37:08.033Z,15.82
2022-12-01T17:39:34.745Z,13.98
2022-12-01T17:42:01.523Z,16.35
2022-12-01T17:44:28.316Z,16.88
2022-12-01T17:46:55.114Z,17.52
2022-12-01T17:49:23.796Z,19.15
2022-12-01T17:51:50.614Z,15.40
2022-12-01T17:54:17.572Z,18.60
2022-12-01T17:56:44.510Z,16.63
2022-12-01T17:59:11.253Z,16.67
2022-12-01T18:01:38.159Z,17.65
2022-12-01T18:04:05.108Z,18.58
2022-12-01T18:06:31.813Z,18.27
2022-12-01T18:08:59.971Z,20.95
2022-12-01T18:11:26.930Z,19.60
2022-12-01T18:13:53.824Z,19.30
2022-12-01T18:16:22.604Z,19.17
2022-12-01T18:18:49.563Z,21.40
2022-12-01T18:21:17.806Z,21.98
2022-12-01T18:23:55.166Z,23.17
2022-12-01T18:26:22.510Z,21.20
2022-12-01T18:28:55.861Z,21.83
2022-12-01T18:31:22.783Z,23.38
2022-12-01T18:33:49.608Z,23.27
2022-12-01T18:36:18.151Z,20.60
2022-12-01T18:38:47.177Z,21.33
2022-12-01T18:41:14.295Z,20.77
2022-12-01T18:43:41.191Z,22.13
2022-12-01T18:46:08.115Z,23.42
2022-12-01T18:48:35.347Z,22.88
2022-12-01T18:51:03.644Z,21.02
2022-12-01T18:53:30.552Z,20.73
2022-12-01T18:56:00.806Z,22.33
2022-12-01T18:58:27.558Z,22.95
2022-12-01T19:00:54.409Z,22.90
2022-12-01T19:03:21.417Z,21.40
2022-12-01T19:05:48.128Z,21.52
2022-12-01T19:08:14.945Z,21.27
2022-12-01T19:10:41.983Z,21.88
2022-12-01T19:13:08.813Z,22.92
2022-12-01T19:15:36.872Z,23.73
2022-12-01T19:18:03.750Z,22.98
2022-12-01T19:20:30.722Z,24.45
2022-12-01T19:22:57.430Z,23.10
2022-12-01T19:25:24.207Z,23.73
2022-12-01T19:27:53.167Z,24.98
2022-12-01T19:30:21.875Z,23.63
2022-12-01T19:32:49.056Z,24.00
2022-12-01T19:35:16.023Z,23.13
2022-12-01T19:37:42.911Z,25.05
2022-12-01T19:40:10.851Z,22.80
2022-12-01T19:42:37.973Z,22.63
2022-12-01T19:45:07.195Z,22.35
2022-12-01T19:47:34.129Z,22.35
2022-12-01T19:50:00.961Z,23.98
2022-12-01T19:52:28.808Z,23.98
2022-12-01T19:54:59.883Z,22.02
2022-12-01T19:57:26.877Z,24.60
2022-12-01T19:59:53.688Z,22.88
2022-12-01T20:02:28.919Z,25.00
2022-12-01T20:04:56.641Z,23.63
2022-12-01T20:07:23.429Z,24.73
2022-12-01T20:09:50.465Z,24.50
2022-12-01T20:12:17.612Z,23.08
2022-12-01T20:14:44.402Z,26.23
2022-12-01T20:17:15.690Z,24.85
2022-12-01T20:19:44.019Z,26.08
2022-12-01T20:22:11.028Z,24.98
2022-12-01T20:24:44.792Z,24.80
2022-12-01T20:27:11.594Z,23.05
2022-12-01T20:29:38.370Z,24.92
2022-12-01T20:32:05.281Z,26.23
2022-12-01T20:34:35.791Z,25.17
2022-12-01T20:37:02.684Z,25.25
2022-12-01T20:39:32.405Z,24.20
2022-12-01T20:41:59.208Z,23.95
2022-12-01T20:44:25.979Z,23.88
2022-12-01T20:46:52.768Z,27.23
2022-12-01T20:49:19.722Z,25.02
2022-12-01T20:51:46.784Z,25.27
2022-12-01T20:54:30.465Z,23.98
2022-12-01T20:56:57.870Z,24.58
2022-12-01T20:59:25.479Z,24.77
2022-12-01T21:01:52.247Z,24.65
2022-12-01T21:04:19.094Z,24.60
2022-12-01T21:06:46.251Z,30.55
2022-12-01T21:09:14.710Z,24.08
2022-12-01T21:12:05.380Z,25.15
2022-12-01T21:14:37.606Z,23.38
2022-12-01T21:17:12.653Z,25.50
2022-12-01T21:19:45.477Z,23.80
2022-12-01T21:22:13.034Z,23.77
2022-12-01T21:24:43.851Z,24.98
2022-12-01T21:27:15.293Z,22.40
2022-12-01T21:29:44.954Z,24.48
2022-12-01T21:32:16.642Z,24.40
2022-12-01T21:34:43.837Z,23.30
2022-12-01T21:37:22.769Z,24.45
2022-12-01T21:39:51.231Z,23.35
2022-12-01T21:42:36.158Z,22.10
2022-12-01T21:45:06.033Z,23.52
2022-12-01T21:47:32.813Z,23.92
2022-12-01T21:50:00.126Z,25.25
2022-12-01T21:52:37.494Z,22.27
2022-12-01T21:55:16.501Z,22.77
2022-12-01T21:57:47.089Z,23.17
2022-12-01T22:00:34.336Z,22.20
2022-12-01T22:03:13.063Z,22.88
2022-12-01T22:06:07.443Z,22.17
2022-12-01T22:08:38.609Z,20.75
2022-12-01T22:11:05.704Z,21.15
2022-12-01T22:13:54.880Z,23.48
2022-12-01T22:16:22.662Z,22.08
2022-12-01T22:18:54.110Z,22.35
2022-12-01T22:21:23.891Z,23.42
2022-12-01T22:23:57.161Z,22.98
2022-12-01T22:26:24.024Z,23.30
2022-12-01T22:28:56.503Z,22.45
2022-12-01T22:31:23.254Z,20.85
2022-12-01T22:34:03.295Z,23.95
2022-12-01T22:36:31.648Z,24.02
2022-12-01T22:38:58.483Z,21.88
2022-12-01T22:41:25.233Z,22.83
2022-12-01T22:43:56.485Z,23.58
2022-12-01T22:46:29.041Z,23.00
2022-12-01T22:49:13.782Z,21.95
2022-12-01T22:52:03.603Z,22.10
2022-12-01T22:54:38.127Z,20.25
2022-12-01T22:57:26.714Z,21.75
2022-12-01T22:59:53.532Z,22.27
2022-12-01T23:02:22.039Z,23.08
2022-12-01T23:04:52.482Z,21.88
2022-12-01T23:07:35.552Z,21.13
2022-12-01T23:10:29.137Z,21.70
2022-12-01T23:12:57.686Z,21.10
2022-12-01T23:15:35.228Z,22.13
2022-12-01T23:18:21.942Z,21.90
2022-12-01T23:20:50.543Z,24.00
2022-12-01T23:23:18.879Z,21.23
2022-12-01T23:25:46.287Z,19.65
2022-12-01T23:28:13.315Z,19.02
2022-12-01T23:30:42.279Z,18.90
2022-12-01T23:33:08.981Z,20.63
2022-12-01T23:35:45.303Z,20.58
2022-12-01T23:38:17.241Z,21.80
2022-12-01T23:40:44.446Z,21.35
2022-12-01T23:43:22.220Z,23.05
2022-12-01T23:45:58.711Z,22.95
2022-12-01T23:48:27.142Z,23.70
2022-12-01T23:50:54.091Z,20.77
2022-12-01T23:53:27.800Z,20.27
2022-12-01T23:55:54.978Z,20.52
2022-12-01T23:58:21.740Z,20.95
